sensor_id;sensor_type;location;lat;lon;timestamp;P1;durP1;ratioP1;P2;durP2;ratioP2
36593;SDS011;22603;47.900;8.146;2022-08-16T00:00:18;10.13;;;3.70;;
36593;SDS011;22603;47.900;8.146;2022-08-16T00:03:09;7.73;;;3.60;;
36593;SDS011;22603;47.900;8.146;2022-08-16T00:05:58;8.43;;;3.90;;
36593;SDS011;22603;47.900;8.146;2022-08-16T00:08:46;8.63;;;3.93;;
36593;SDS011;22603;47.900;8.146;2022-08-16T00:11:34;11.27;;;3.97;;
36593;SDS011;22603;47.900;8.146;2022-08-16T00:14:23;8.83;;;3.63;;
36593;SDS011;22603;47.900;8.146;2022-08-16T00:17:14;9.77;;;3.90;;
36593;SDS011;22603;47.900;8.146;2022-08-16T00:20:05;10.67;;;3.83;;
36593;SDS011;22603;47.900;8.146;2022-08-16T00:22:56;9.37;;;4.10;;
36593;SDS011;22603;47.900;8.146;2022-08-16T00:25:43;8.10;;;3.73;;
36593;SDS011;22603;47.900;8.146;2022-08-16T00:28:50;8.77;;;4.00;;
36593;SDS011;22603;47.900;8.146;2022-08-16T00:31:39;10.70;;;4.07;;
36593;SDS011;22603;47.900;8.146;2022-08-16T00:34:45;8.17;;;3.77;;
36593;SDS011;22603;47.900;8.146;2022-08-16T00:37:39;9.53;;;3.80;;
36593;SDS011;22603;47.900;8.146;2022-08-16T00:40:47;10.00;;;3.57;;
36593;SDS011;22603;47.900;8.146;2022-08-16T00:43:38;9.13;;;4.00;;
36593;SDS011;22603;47.900;8.146;2022-08-16T00:46:30;8.70;;;3.83;;
36593;SDS011;22603;47.900;8.146;2022-08-16T00:49:37;8.07;;;3.70;;
36593;SDS011;22603;47.900;8.146;2022-08-16T00:52:29;9.03;;;4.00;;
36593;SDS011;22603;47.900;8.146;2022-08-16T00:55:18;11.23;;;4.27;;
36593;SDS011;22603;47.900;8.146;2022-08-16T00:58:07;8.63;;;3.80;;
36593;SDS011;22603;47.900;8.146;2022-08-16T01:01:00;9.07;;;3.97;;
36593;SDS011;22603;47.900;8.146;2022-08-16T01:03:53;10.20;;;4.37;;
36593;SDS011;22603;47.900;8.146;2022-08-16T01:06:41;8.07;;;3.53;;
36593;SDS011;22603;47.900;8.146;2022-08-16T01:09:46;8.50;;;3.63;;
36593;SDS011;22603;47.900;8.146;2022-08-16T01:12:35;8.27;;;3.80;;
36593;SDS011;22603;47.900;8.146;2022-08-16T01:15:22;10.30;;;4.03;;
36593;SDS011;22603;47.900;8.146;2022-08-16T01:18:11;9.30;;;3.60;;
36593;SDS011;22603;47.900;8.146;2022-08-16T01:21:24;9.47;;;3.70;;
36593;SDS011;22603;47.900;8.146;2022-08-16T01:24:20;12.37;;;4.20;;
36593;SDS011;22603;47.900;8.146;2022-08-16T01:27:35;8.90;;;4.07;;
36593;SDS011;22603;47.900;8.146;2022-08-16T01:30:28;10.17;;;4.13;;
36593;SDS011;22603;47.900;8.146;2022-08-16T01:33:23;9.27;;;3.53;;
36593;SDS011;22603;47.900;8.146;2022-08-16T01:36:19;9.50;;;3.90;;
36593;SDS011;22603;47.900;8.146;2022-08-16T01:39:11;8.47;;;3.67;;
36593;SDS011;22603;47.900;8.146;2022-08-16T01:42:02;8.67;;;4.23;;
36593;SDS011;22603;47.900;8.146;2022-08-16T01:44:57;9.27;;;4.07;;
36593;SDS011;22603;47.900;8.146;2022-08-16T01:47:45;11.70;;;4.40;;
36593;SDS011;22603;47.900;8.146;2022-08-16T01:50:36;8.53;;;3.43;;
36593;SDS011;22603;47.900;8.146;2022-08-16T01:53:46;7.53;;;3.50;;
36593;SDS011;22603;47.900;8.146;2022-08-16T01:56:40;10.13;;;4.40;;
36593;SDS011;22603;47.900;8.146;2022-08-16T01:59:29;7.70;;;3.63;;
36593;SDS011;22603;47.900;8.146;2022-08-16T02:02:18;8.10;;;3.80;;
36593;SDS011;22603;47.900;8.146;2022-08-16T02:05:12;8.63;;;4.13;;
36593;SDS011;22603;47.900;8.146;2022-08-16T02:07:59;10.17;;;4.30;;
36593;SDS011;22603;47.900;8.146;2022-08-16T02:10:47;9.53;;;4.13;;
36593;SDS011;22603;47.900;8.146;2022-08-16T02:13:34;8.77;;;3.77;;
36593;SDS011;22603;47.900;8.146;2022-08-16T02:16:27;10.37;;;4.20;;
36593;SDS011;22603;47.900;8.146;2022-08-16T02:19:14;12.90;;;4.70;;
36593;SDS011;22603;47.900;8.146;2022-08-16T02:22:06;10.67;;;4.20;;
36593;SDS011;22603;47.900;8.146;2022-08-16T02:25:15;9.43;;;4.00;;
36593;SDS011;22603;47.900;8.146;2022-08-16T02:28:02;9.53;;;4.50;;
36593;SDS011;22603;47.900;8.146;2022-08-16T02:30:54;10.43;;;4.67;;
36593;SDS011;22603;47.900;8.146;2022-08-16T02:33:44;8.07;;;3.60;;
36593;SDS011;22603;47.900;8.146;2022-08-16T02:36:34;9.43;;;4.47;;
36593;SDS011;22603;47.900;8.146;2022-08-16T02:39:33;7.60;;;3.57;;
36593;SDS011;22603;47.900;8.146;2022-08-16T02:42:20;9.83;;;3.83;;
36593;SDS011;22603;47.900;8.146;2022-08-16T02:45:08;8.93;;;4.20;;
36593;SDS011;22603;47.900;8.146;2022-08-16T02:47:56;8.93;;;4.00;;
36593;SDS011;22603;47.900;8.146;2022-08-16T02:51:06;10.73;;;4.57;;
36593;SDS011;22603;47.900;8.146;2022-08-16T02:53:55;11.40;;;4.57;;
36593;SDS011;22603;47.900;8.146;2022-08-16T02:56:42;11.70;;;4.50;;
36593;SDS011;22603;47.900;8.146;2022-08-16T02:59:32;10.23;;;4.40;;
36593;SDS011;22603;47.900;8.146;2022-08-16T03:02:25;10.93;;;4.40;;
36593;SDS011;22603;47.900;8.146;2022-08-16T03:05:16;10.10;;;4.37;;
36593;SDS011;22603;47.900;8.146;2022-08-16T03:08:05;9.23;;;4.37;;
36593;SDS011;22603;47.900;8.146;2022-08-16T03:11:13;10.90;;;4.47;;
36593;SDS011;22603;47.900;8.146;2022-08-16T03:14:05;9.90;;;4.73;;
36593;SDS011;22603;47.900;8.146;2022-08-16T03:16:55;9.77;;;4.67;;
36593;SDS011;22603;47.900;8.146;2022-08-16T03:19:44;13.37;;;5.00;;
36593;SDS011;22603;47.900;8.146;2022-08-16T03:22:46;10.10;;;4.40;;
36593;SDS011;22603;47.900;8.146;2022-08-16T03:25:34;9.20;;;4.13;;
36593;SDS011;22603;47.900;8.146;2022-08-16T03:28:29;9.50;;;4.37;;
36593;SDS011;22603;47.900;8.146;2022-08-16T03:31:16;10.90;;;3.90;;
36593;SDS011;22603;47.900;8.146;2022-08-16T03:34:03;12.33;;;5.43;;
36593;SDS011;22603;47.900;8.146;2022-08-16T03:36:53;10.77;;;4.43;;
36593;SDS011;22603;47.900;8.146;2022-08-16T03:39:40;10.30;;;4.20;;
36593;SDS011;22603;47.900;8.146;2022-08-16T03:42:29;9.87;;;4.57;;
36593;SDS011;22603;47.900;8.146;2022-08-16T03:45:16;10.13;;;4.37;;
36593;SDS011;22603;47.900;8.146;2022-08-16T03:48:04;9.83;;;4.53;;
36593;SDS011;22603;47.900;8.146;2022-08-16T03:50:52;11.03;;;4.90;;
36593;SDS011;22603;47.900;8.146;2022-08-16T03:53:44;11.80;;;4.97;;
36593;SDS011;22603;47.900;8.146;2022-08-16T03:56:45;11.80;;;4.43;;
36593;SDS011;22603;47.900;8.146;2022-08-16T03:59:43;9.33;;;4.00;;
36593;SDS011;22603;47.900;8.146;2022-08-16T04:02:30;9.63;;;4.90;;
36593;SDS011;22603;47.900;8.146;2022-08-16T04:05:17;11.23;;;4.90;;
36593;SDS011;22603;47.900;8.146;2022-08-16T04:08:06;10.87;;;4.60;;
36593;SDS011;22603;47.900;8.146;2022-08-16T04:11:08;10.67;;;4.90;;
36593;SDS011;22603;47.900;8.146;2022-08-16T04:14:00;10.57;;;4.43;;
36593;SDS011;22603;47.900;8.146;2022-08-16T04:17:08;9.93;;;4.50;;
36593;SDS011;22603;47.900;8.146;2022-08-16T04:19:55;12.00;;;5.17;;
36593;SDS011;22603;47.900;8.146;2022-08-16T04:22:43;8.67;;;3.70;;
36593;SDS011;22603;47.900;8.146;2022-08-16T04:25:33;11.67;;;4.80;;
36593;SDS011;22603;47.900;8.146;2022-08-16T04:28:21;9.60;;;4.00;;
36593;SDS011;22603;47.900;8.146;2022-08-16T04:31:28;14.03;;;4.27;;
36593;SDS011;22603;47.900;8.146;2022-08-16T04:34:20;10.50;;;4.80;;
36593;SDS011;22603;47.900;8.146;2022-08-16T04:37:09;10.77;;;5.27;;
36593;SDS011;22603;47.900;8.146;2022-08-16T04:39:56;11.23;;;4.93;;
36593;SDS011;22603;47.900;8.146;2022-08-16T04:42:43;11.37;;;5.17;;
36593;SDS011;22603;47.900;8.146;2022-08-16T04:45:31;10.50;;;4.30;;
36593;SDS011;22603;47.900;8.146;2022-08-16T04:48:20;10.20;;;4.17;;
36593;SDS011;22603;47.900;8.146;2022-08-16T04:51:19;10.73;;;4.57;;
36593;SDS011;22603;47.900;8.146;2022-08-16T04:54:07;12.10;;;5.10;;
36593;SDS011;22603;47.900;8.146;2022-08-16T04:56:55;9.70;;;4.60;;
36593;SDS011;22603;47.900;8.146;2022-08-16T04:59:43;9.87;;;4.70;;
36593;SDS011;22603;47.900;8.146;2022-08-16T05:02:30;10.63;;;4.77;;
36593;SDS011;22603;47.900;8.146;2022-08-16T05:05:27;11.97;;;5.20;;
36593;SDS011;22603;47.900;8.146;2022-08-16T05:08:22;10.70;;;4.30;;
36593;SDS011;22603;47.900;8.146;2022-08-16T05:11:14;10.47;;;5.40;;
36593;SDS011;22603;47.900;8.146;2022-08-16T05:14:01;11.93;;;5.17;;
36593;SDS011;22603;47.900;8.146;2022-08-16T05:16:51;10.60;;;5.23;;
36593;SDS011;22603;47.900;8.146;2022-08-16T05:19:38;11.37;;;5.00;;
36593;SDS011;22603;47.900;8.146;2022-08-16T05:22:42;12.70;;;5.53;;
36593;SDS011;22603;47.900;8.146;2022-08-16T05:25:31;13.40;;;5.93;;
36593;SDS011;22603;47.900;8.146;2022-08-16T05:28:32;20.93;;;6.37;;
36593;SDS011;22603;47.900;8.146;2022-08-16T05:31:22;13.73;;;5.97;;
36593;SDS011;22603;47.900;8.146;2022-08-16T05:34:16;13.30;;;6.47;;
36593;SDS011;22603;47.900;8.146;2022-08-16T05:37:06;19.37;;;6.47;;
36593;SDS011;22603;47.900;8.146;2022-08-16T05:40:00;17.73;;;5.93;;
36593;SDS011;22603;47.900;8.146;2022-08-16T05:42:51;11.63;;;5.63;;
36593;SDS011;22603;47.900;8.146;2022-08-16T05:45:40;14.13;;;6.13;;
36593;SDS011;22603;47.900;8.146;2022-08-16T05:48:34;10.37;;;4.97;;
36593;SDS011;22603;47.900;8.146;2022-08-16T05:51:22;11.57;;;5.43;;
36593;SDS011;22603;47.900;8.146;2022-08-16T05:54:24;11.20;;;5.70;;
36593;SDS011;22603;47.900;8.146;2022-08-16T05:57:13;11.97;;;5.60;;
36593;SDS011;22603;47.900;8.146;2022-08-16T06:00:05;12.90;;;6.10;;
36593;SDS011;22603;47.900;8.146;2022-08-16T06:03:06;12.57;;;6.20;;
36593;SDS011;22603;47.900;8.146;2022-08-16T06:05:57;12.10;;;6.13;;
36593;SDS011;22603;47.900;8.146;2022-08-16T06:08:44;10.17;;;4.77;;
36593;SDS011;22603;47.900;8.146;2022-08-16T06:11:32;11.27;;;5.40;;
36593;SDS011;22603;47.900;8.146;2022-08-16T06:14:19;9.43;;;4.73;;
36593;SDS011;22603;47.900;8.146;2022-08-16T06:17:14;14.30;;;6.07;;
36593;SDS011;22603;47.900;8.146;2022-08-16T06:20:06;13.77;;;6.23;;
36593;SDS011;22603;47.900;8.146;2022-08-16T06:22:55;16.03;;;5.43;;
36593;SDS011;22603;47.900;8.146;2022-08-16T06:25:55;12.50;;;5.97;;
36593;SDS011;22603;47.900;8.146;2022-08-16T06:28:43;11.60;;;5.70;;
36593;SDS011;22603;47.900;8.146;2022-08-16T06:31:30;12.40;;;6.10;;
36593;SDS011;22603;47.900;8.146;2022-08-16T06:34:32;11.07;;;5.80;;
36593;SDS011;22603;47.900;8.146;2022-08-16T06:37:39;15.03;;;7.00;;
36593;SDS011;22603;47.900;8.146;2022-08-16T06:40:35;13.50;;;5.60;;
36593;SDS011;22603;47.900;8.146;2022-08-16T06:43:22;11.68;;;5.57;;
36593;SDS011;22603;47.900;8.146;2022-08-16T06:46:21;11.65;;;4.93;;
36593;SDS011;22603;47.900;8.146;2022-08-16T06:49:16;8.77;;;4.30;;
36593;SDS011;22603;47.900;8.146;2022-08-16T06:52:04;10.60;;;4.45;;
36593;SDS011;22603;47.900;8.146;2022-08-16T06:55:13;8.82;;;4.20;;
36593;SDS011;22603;47.900;8.146;2022-08-16T06:58:02;8.55;;;4.05;;
36593;SDS011;22603;47.900;8.146;2022-08-16T07:00:52;9.23;;;3.88;;
36593;SDS011;22603;47.900;8.146;2022-08-16T07:03:43;7.68;;;3.55;;
36593;SDS011;22603;47.900;8.146;2022-08-16T07:06:40;10.48;;;4.35;;
36593;SDS011;22603;47.900;8.146;2022-08-16T07:09:30;9.73;;;3.90;;
36593;SDS011;22603;47.900;8.146;2022-08-16T07:12:18;8.45;;;4.32;;
36593;SDS011;22603;47.900;8.146;2022-08-16T07:15:20;9.90;;;4.20;;
36593;SDS011;22603;47.900;8.146;2022-08-16T07:18:10;9.80;;;4.22;;
36593;SDS011;22603;47.900;8.146;2022-08-16T07:21:01;12.10;;;4.35;;
36593;SDS011;22603;47.900;8.146;2022-08-16T07:23:51;12.05;;;4.22;;
36593;SDS011;22603;47.900;8.146;2022-08-16T07:26:51;8.52;;;3.70;;
36593;SDS011;22603;47.900;8.146;2022-08-16T07:29:38;9.07;;;3.53;;
36593;SDS011;22603;47.900;8.146;2022-08-16T07:32:26;8.80;;;3.90;;
36593;SDS011;22603;47.900;8.146;2022-08-16T07:35:15;8.73;;;3.95;;
36593;SDS011;22603;47.900;8.146;2022-08-16T07:38:02;8.43;;;3.60;;
36593;SDS011;22603;47.900;8.146;2022-08-16T07:40:50;7.25;;;3.63;;
36593;SDS011;22603;47.900;8.146;2022-08-16T07:43:47;7.25;;;3.70;;
36593;SDS011;22603;47.900;8.146;2022-08-16T07:46:35;6.65;;;2.95;;
36593;SDS011;22603;47.900;8.146;2022-08-16T07:49:27;6.45;;;3.28;;
36593;SDS011;22603;47.900;8.146;2022-08-16T07:52:16;8.93;;;3.70;;
36593;SDS011;22603;47.900;8.146;2022-08-16T07:55:06;10.40;;;3.35;;
36593;SDS011;22603;47.900;8.146;2022-08-16T07:57:55;7.28;;;2.97;;
36593;SDS011;22603;47.900;8.146;2022-08-16T08:00:48;7.38;;;3.15;;
36593;SDS011;22603;47.900;8.146;2022-08-16T08:03:35;8.63;;;3.10;;
36593;SDS011;22603;47.900;8.146;2022-08-16T08:06:27;9.63;;;3.05;;
36593;SDS011;22603;47.900;8.146;2022-08-16T08:09:16;10.35;;;3.33;;
36593;SDS011;22603;47.900;8.146;2022-08-16T08:12:04;7.30;;;2.78;;
36593;SDS011;22603;47.900;8.146;2022-08-16T08:15:11;6.07;;;3.15;;
36593;SDS011;22603;47.900;8.146;2022-08-16T08:18:10;8.68;;;3.13;;
36593;SDS011;22603;47.900;8.146;2022-08-16T08:21:15;6.90;;;2.78;;
36593;SDS011;22603;47.900;8.146;2022-08-16T08:24:11;10.48;;;3.10;;
36593;SDS011;22603;47.900;8.146;2022-08-16T08:27:02;6.63;;;2.88;;
36593;SDS011;22603;47.900;8.146;2022-08-16T08:29:51;6.35;;;2.92;;
36593;SDS011;22603;47.900;8.146;2022-08-16T08:32:57;5.43;;;2.53;;
36593;SDS011;22603;47.900;8.146;2022-08-16T08:35:46;6.40;;;3.03;;
36593;SDS011;22603;47.900;8.146;2022-08-16T08:38:35;6.85;;;3.03;;
36593;SDS011;22603;47.900;8.146;2022-08-16T08:41:29;8.25;;;2.85;;
36593;SDS011;22603;47.900;8.146;2022-08-16T08:44:18;9.95;;;2.90;;
36593;SDS011;22603;47.900;8.146;2022-08-16T08:47:14;6.93;;;2.80;;
36593;SDS011;22603;47.900;8.146;2022-08-16T08:50:02;8.48;;;2.72;;
36593;SDS011;22603;47.900;8.146;2022-08-16T08:52:51;6.15;;;2.70;;
36593;SDS011;22603;47.900;8.146;2022-08-16T08:55:40;8.75;;;2.80;;
36593;SDS011;22603;47.900;8.146;2022-08-16T08:58:28;10.50;;;3.13;;
36593;SDS011;22603;47.900;8.146;2022-08-16T09:01:20;11.10;;;2.92;;
36593;SDS011;22603;47.900;8.146;2022-08-16T09:04:20;7.18;;;2.75;;
36593;SDS011;22603;47.900;8.146;2022-08-16T09:07:07;8.00;;;2.92;;
36593;SDS011;22603;47.900;8.146;2022-08-16T09:09:57;6.35;;;2.90;;
36593;SDS011;22603;47.900;8.146;2022-08-16T09:13:04;7.72;;;3.00;;
36593;SDS011;22603;47.900;8.146;2022-08-16T09:15:54;7.70;;;2.90;;
36593;SDS011;22603;47.900;8.146;2022-08-16T09:18:42;6.65;;;2.70;;
36593;SDS011;22603;47.900;8.146;2022-08-16T09:21:29;7.88;;;3.30;;
36593;SDS011;22603;47.900;8.146;2022-08-16T09:24:20;10.25;;;2.92;;
36593;SDS011;22603;47.900;8.146;2022-08-16T09:27:28;7.40;;;2.40;;
36593;SDS011;22603;47.900;8.146;2022-08-16T09:30:35;9.20;;;2.97;;
36593;SDS011;22603;47.900;8.146;2022-08-16T09:33:28;6.18;;;2.80;;
36593;SDS011;22603;47.900;8.146;2022-08-16T09:36:21;5.75;;;2.58;;
36593;SDS011;22603;47.900;8.146;2022-08-16T09:39:17;5.90;;;2.83;;
36593;SDS011;22603;47.900;8.146;2022-08-16T09:42:05;11.85;;;3.10;;
36593;SDS011;22603;47.900;8.146;2022-08-16T09:44:55;6.45;;;2.70;;
36593;SDS011;22603;47.900;8.146;2022-08-16T09:48:00;6.25;;;3.10;;
36593;SDS011;22603;47.900;8.146;2022-08-16T09:50:48;6.53;;;3.08;;
36593;SDS011;22603;47.900;8.146;2022-08-16T09:53:40;6.32;;;3.08;;
36593;SDS011;22603;47.900;8.146;2022-08-16T09:56:28;8.52;;;2.90;;
36593;SDS011;22603;47.900;8.146;2022-08-16T09:59:17;5.45;;;2.88;;
36593;SDS011;22603;47.900;8.146;2022-08-16T10:02:07;5.97;;;2.80;;
36593;SDS011;22603;47.900;8.146;2022-08-16T10:05:11;5.63;;;2.60;;
36593;SDS011;22603;47.900;8.146;2022-08-16T10:07:59;8.05;;;3.33;;
36593;SDS011;22603;47.900;8.146;2022-08-16T10:11:06;7.57;;;3.03;;
36593;SDS011;22603;47.900;8.146;2022-08-16T10:14:12;5.95;;;2.97;;
36593;SDS011;22603;47.900;8.146;2022-08-16T10:17:03;6.13;;;3.08;;
36593;SDS011;22603;47.900;8.146;2022-08-16T10:19:56;6.30;;;3.13;;
36593;SDS011;22603;47.900;8.146;2022-08-16T10:22:43;6.60;;;2.90;;
36593;SDS011;22603;47.900;8.146;2022-08-16T10:25:31;8.43;;;3.22;;
36593;SDS011;22603;47.900;8.146;2022-08-16T10:28:38;6.32;;;2.80;;
36593;SDS011;22603;47.900;8.146;2022-08-16T10:31:26;8.48;;;2.78;;
36593;SDS011;22603;47.900;8.146;2022-08-16T10:34:30;6.55;;;3.22;;
36593;SDS011;22603;47.900;8.146;2022-08-16T10:37:18;6.63;;;2.67;;
36593;SDS011;22603;47.900;8.146;2022-08-16T10:40:21;5.43;;;2.60;;
36593;SDS011;22603;47.900;8.146;2022-08-16T10:43:20;6.82;;;2.75;;
36593;SDS011;22603;47.900;8.146;2022-08-16T10:46:08;6.55;;;2.72;;
36593;SDS011;22603;47.900;8.146;2022-08-16T10:49:17;4.38;;;2.15;;
36593;SDS011;22603;47.900;8.146;2022-08-16T10:52:04;5.80;;;2.60;;
36593;SDS011;22603;47.900;8.146;2022-08-16T10:55:05;6.25;;;2.88;;
36593;SDS011;22603;47.900;8.146;2022-08-16T10:58:14;5.60;;;2.70;;
36593;SDS011;22603;47.900;8.146;2022-08-16T11:01:02;5.00;;;2.90;;
36593;SDS011;22603;47.900;8.146;2022-08-16T11:04:10;8.30;;;2.83;;
36593;SDS011;22603;47.900;8.146;2022-08-16T11:07:18;8.25;;;3.15;;
36593;SDS011;22603;47.900;8.146;2022-08-16T11:10:28;7.32;;;2.95;;
36593;SDS011;22603;47.900;8.146;2022-08-16T11:13:36;8.38;;;3.00;;
36593;SDS011;22603;47.900;8.146;2022-08-16T11:16:44;6.70;;;2.72;;
36593;SDS011;22603;47.900;8.146;2022-08-16T11:19:51;6.70;;;3.20;;
36593;SDS011;22603;47.900;8.146;2022-08-16T11:22:58;6.45;;;3.00;;
36593;SDS011;22603;47.900;8.146;2022-08-16T11:25:46;6.18;;;3.10;;
36593;SDS011;22603;47.900;8.146;2022-08-16T11:28:54;5.60;;;3.13;;
36593;SDS011;22603;47.900;8.146;2022-08-16T11:31:58;6.82;;;3.22;;
36593;SDS011;22603;47.900;8.146;2022-08-16T11:34:46;7.93;;;3.47;;
36593;SDS011;22603;47.900;8.146;2022-08-16T11:37:54;6.80;;;3.03;;
36593;SDS011;22603;47.900;8.146;2022-08-16T11:41:03;10.60;;;3.33;;
36593;SDS011;22603;47.900;8.146;2022-08-16T11:43:50;6.43;;;3.10;;
36593;SDS011;22603;47.900;8.146;2022-08-16T11:46:38;7.75;;;3.15;;
36593;SDS011;22603;47.900;8.146;2022-08-16T11:49:29;7.13;;;3.10;;
36593;SDS011;22603;47.900;8.146;2022-08-16T11:52:17;8.63;;;3.33;;
36593;SDS011;22603;47.900;8.146;2022-08-16T11:55:06;7.88;;;3.00;;
36593;SDS011;22603;47.900;8.146;2022-08-16T11:57:56;6.38;;;2.65;;
36593;SDS011;22603;47.900;8.146;2022-08-16T12:00:44;7.95;;;3.28;;
36593;SDS011;22603;47.900;8.146;2022-08-16T12:03:37;9.27;;;3.00;;
36593;SDS011;22603;47.900;8.146;2022-08-16T12:06:26;6.13;;;2.92;;
36593;SDS011;22603;47.900;8.146;2022-08-16T12:09:17;5.78;;;2.90;;
36593;SDS011;22603;47.900;8.146;2022-08-16T12:12:06;7.05;;;2.72;;
36593;SDS011;22603;47.900;8.146;2022-08-16T12:14:54;6.85;;;3.08;;
36593;SDS011;22603;47.900;8.146;2022-08-16T12:17:44;10.98;;;3.30;;
36593;SDS011;22603;47.900;8.146;2022-08-16T12:20:35;7.97;;;3.13;;
36593;SDS011;22603;47.900;8.146;2022-08-16T12:23:25;14.25;;;2.90;;
36593;SDS011;22603;47.900;8.146;2022-08-16T12:26:15;8.82;;;3.55;;
36593;SDS011;22603;47.900;8.146;2022-08-16T12:29:04;8.00;;;3.50;;
36593;SDS011;22603;47.900;8.146;2022-08-16T12:31:53;6.18;;;3.00;;
36593;SDS011;22603;47.900;8.146;2022-08-16T12:34:59;6.25;;;2.80;;
36593;SDS011;22603;47.900;8.146;2022-08-16T12:37:48;7.70;;;3.15;;
36593;SDS011;22603;47.900;8.146;2022-08-16T12:40:41;6.53;;;2.90;;
36593;SDS011;22603;47.900;8.146;2022-08-16T12:43:31;8.23;;;3.42;;
36593;SDS011;22603;47.900;8.146;2022-08-16T12:46:19;5.72;;;2.75;;
36593;SDS011;22603;47.900;8.146;2022-08-16T12:49:07;9.15;;;3.78;;
36593;SDS011;22603;47.900;8.146;2022-08-16T12:51:56;7.32;;;3.10;;
36593;SDS011;22603;47.900;8.146;2022-08-16T12:54:46;6.07;;;3.00;;
36593;SDS011;22603;47.900;8.146;2022-08-16T12:57:39;7.90;;;3.08;;
36593;SDS011;22603;47.900;8.146;2022-08-16T13:00:27;7.53;;;3.58;;
36593;SDS011;22603;47.900;8.146;2022-08-16T13:03:17;9.20;;;3.38;;
36593;SDS011;22603;47.900;8.146;2022-08-16T13:06:07;9.77;;;3.30;;
36593;SDS011;22603;47.900;8.146;2022-08-16T13:08:56;6.47;;;3.22;;
36593;SDS011;22603;47.900;8.146;2022-08-16T13:11:49;5.97;;;3.20;;
36593;SDS011;22603;47.900;8.146;2022-08-16T13:14:45;10.63;;;3.00;;
36593;SDS011;22603;47.900;8.146;2022-08-16T13:17:34;5.75;;;2.50;;
36593;SDS011;22603;47.900;8.146;2022-08-16T13:20:27;7.97;;;3.20;;
36593;SDS011;22603;47.900;8.146;2022-08-16T13:23:16;8.65;;;3.00;;
36593;SDS011;22603;47.900;8.146;2022-08-16T13:26:04;6.85;;;3.00;;
36593;SDS011;22603;47.900;8.146;2022-08-16T13:28:52;6.18;;;2.97;;
36593;SDS011;22603;47.900;8.146;2022-08-16T13:31:39;6.47;;;3.30;;
36593;SDS011;22603;47.900;8.146;2022-08-16T13:34:26;8.85;;;3.00;;
36593;SDS011;22603;47.900;8.146;2022-08-16T13:37:13;6.63;;;2.80;;
36593;SDS011;22603;47.900;8.146;2022-08-16T13:40:04;7.80;;;2.90;;
36593;SDS011;22603;47.900;8.146;2022-08-16T13:43:00;6.13;;;2.92;;
36593;SDS011;22603;47.900;8.146;2022-08-16T13:45:47;10.88;;;3.10;;
36593;SDS011;22603;47.900;8.146;2022-08-16T13:48:40;6.70;;;2.97;;
36593;SDS011;22603;47.900;8.146;2022-08-16T13:51:29;6.97;;;2.92;;
36593;SDS011;22603;47.900;8.146;2022-08-16T13:54:16;7.13;;;3.08;;
36593;SDS011;22603;47.900;8.146;2022-08-16T13:57:05;10.75;;;3.45;;
36593;SDS011;22603;47.900;8.146;2022-08-16T13:59:55;9.77;;;3.10;;
36593;SDS011;22603;47.900;8.146;2022-08-16T14:02:42;9.02;;;3.40;;
36593;SDS011;22603;47.900;8.146;2022-08-16T14:05:33;5.45;;;2.83;;
36593;SDS011;22603;47.900;8.146;2022-08-16T14:08:19;7.30;;;2.92;;
36593;SDS011;22603;47.900;8.146;2022-08-16T14:11:12;5.90;;;2.53;;
36593;SDS011;22603;47.900;8.146;2022-08-16T14:14:02;7.90;;;2.88;;
36593;SDS011;22603;47.900;8.146;2022-08-16T14:16:50;6.20;;;3.00;;
36593;SDS011;22603;47.900;8.146;2022-08-16T14:19:37;7.82;;;3.35;;
36593;SDS011;22603;47.900;8.146;2022-08-16T14:22:31;10.05;;;2.83;;
36593;SDS011;22603;47.900;8.146;2022-08-16T14:25:24;7.68;;;3.08;;
36593;SDS011;22603;47.900;8.146;2022-08-16T14:28:12;8.20;;;3.22;;
36593;SDS011;22603;47.900;8.146;2022-08-16T14:31:02;10.88;;;2.90;;
36593;SDS011;22603;47.900;8.146;2022-08-16T14:33:49;9.45;;;2.92;;
36593;SDS011;22603;47.900;8.146;2022-08-16T14:36:36;9.63;;;3.00;;
36593;SDS011;22603;47.900;8.146;2022-08-16T14:39:26;6.78;;;2.80;;
36593;SDS011;22603;47.900;8.146;2022-08-16T14:42:14;6.45;;;3.10;;
36593;SDS011;22603;47.900;8.146;2022-08-16T14:45:04;6.43;;;2.83;;
36593;SDS011;22603;47.900;8.146;2022-08-16T14:47:54;6.47;;;2.70;;
36593;SDS011;22603;47.900;8.146;2022-08-16T14:50:42;6.90;;;2.75;;
36593;SDS011;22603;47.900;8.146;2022-08-16T14:53:29;6.18;;;2.83;;
36593;SDS011;22603;47.900;8.146;2022-08-16T14:56:17;5.35;;;2.83;;
36593;SDS011;22603;47.900;8.146;2022-08-16T14:59:26;6.13;;;2.78;;
36593;SDS011;22603;47.900;8.146;2022-08-16T15:02:20;9.82;;;3.28;;
36593;SDS011;22603;47.900;8.146;2022-08-16T15:05:20;7.43;;;2.90;;
36593;SDS011;22603;47.900;8.146;2022-08-16T15:08:09;9.85;;;3.10;;
36593;SDS011;22603;47.900;8.146;2022-08-16T15:10:56;8.63;;;2.88;;
36593;SDS011;22603;47.900;8.146;2022-08-16T15:13:43;9.27;;;2.67;;
36593;SDS011;22603;47.900;8.146;2022-08-16T15:16:33;12.43;;;3.10;;
36593;SDS011;22603;47.900;8.146;2022-08-16T15:19:27;6.60;;;2.65;;
36593;SDS011;22603;47.900;8.146;2022-08-16T15:22:21;7.40;;;2.72;;
36593;SDS011;22603;47.900;8.146;2022-08-16T15:25:15;7.43;;;3.15;;
36593;SDS011;22603;47.900;8.146;2022-08-16T15:28:07;5.60;;;2.78;;
36593;SDS011;22603;47.900;8.146;2022-08-16T15:31:14;12.38;;;3.67;;
36593;SDS011;22603;47.900;8.146;2022-08-16T15:34:02;5.85;;;2.75;;
36593;SDS011;22603;47.900;8.146;2022-08-16T15:36:49;6.47;;;2.72;;
36593;SDS011;22603;47.900;8.146;2022-08-16T15:39:38;5.55;;;2.70;;
36593;SDS011;22603;47.900;8.146;2022-08-16T15:42:32;5.75;;;2.70;;
36593;SDS011;22603;47.900;8.146;2022-08-16T15:45:20;5.78;;;2.60;;
36593;SDS011;22603;47.900;8.146;2022-08-16T15:48:22;5.53;;;2.50;;
36593;SDS011;22603;47.900;8.146;2022-08-16T15:51:13;10.93;;;2.88;;
36593;SDS011;22603;47.900;8.146;2022-08-16T15:54:00;5.82;;;2.35;;
36593;SDS011;22603;47.900;8.146;2022-08-16T15:57:08;5.95;;;2.83;;
36593;SDS011;22603;47.900;8.146;2022-08-16T15:59:56;7.00;;;2.60;;
36593;SDS011;22603;47.900;8.146;2022-08-16T16:02:59;6.32;;;2.60;;
36593;SDS011;22603;47.900;8.146;2022-08-16T16:05:53;5.18;;;2.47;;
36593;SDS011;22603;47.900;8.146;2022-08-16T16:08:43;8.68;;;2.80;;
36593;SDS011;22603;47.900;8.146;2022-08-16T16:11:31;12.88;;;2.50;;
36593;SDS011;22603;47.900;8.146;2022-08-16T16:14:21;9.23;;;2.78;;
36593;SDS011;22603;47.900;8.146;2022-08-16T16:17:12;4.88;;;2.15;;
36593;SDS011;22603;47.900;8.146;2022-08-16T16:20:01;6.43;;;2.58;;
36593;SDS011;22603;47.900;8.146;2022-08-16T16:22:59;6.25;;;2.55;;
36593;SDS011;22603;47.900;8.146;2022-08-16T16:25:54;6.75;;;2.80;;
36593;SDS011;22603;47.900;8.146;2022-08-16T16:28:41;6.75;;;2.72;;
36593;SDS011;22603;47.900;8.146;2022-08-16T16:31:52;8.73;;;3.00;;
36593;SDS011;22603;47.900;8.146;2022-08-16T16:34:44;4.75;;;2.28;;
36593;SDS011;22603;47.900;8.146;2022-08-16T16:37:31;4.57;;;2.33;;
36593;SDS011;22603;47.900;8.146;2022-08-16T16:40:21;6.05;;;2.58;;
36593;SDS011;22603;47.900;8.146;2022-08-16T16:43:17;6.13;;;2.30;;
36593;SDS011;22603;47.900;8.146;2022-08-16T16:46:10;5.57;;;2.53;;
36593;SDS011;22603;47.900;8.146;2022-08-16T16:49:20;7.68;;;2.58;;
36593;SDS011;22603;47.900;8.146;2022-08-16T16:52:10;5.57;;;2.50;;
36593;SDS011;22603;47.900;8.146;2022-08-16T16:55:19;8.63;;;2.65;;
36593;SDS011;22603;47.900;8.146;2022-08-16T16:58:09;5.47;;;2.80;;
36593;SDS011;22603;47.900;8.146;2022-08-16T17:01:28;6.28;;;2.25;;
36593;SDS011;22603;47.900;8.146;2022-08-16T17:04:40;6.82;;;2.72;;
36593;SDS011;22603;47.900;8.146;2022-08-16T17:07:27;5.32;;;2.50;;
36593;SDS011;22603;47.900;8.146;2022-08-16T17:10:16;4.97;;;2.42;;
36593;SDS011;22603;47.900;8.146;2022-08-16T17:13:24;5.22;;;2.22;;
36593;SDS011;22603;47.900;8.146;2022-08-16T17:16:12;7.45;;;2.42;;